createdAt,value
2018-10-12T13:04:11.761Z,25.30
2018-10-12T13:09:14.158Z,25.30
2018-10-12T13:14:16.511Z,25.30
2018-10-12T13:19:18.854Z,25.30
2018-10-12T13:24:21.247Z,25.30
2018-10-12T13:29:23.465Z,25.20
2018-10-12T13:34:25.590Z,25.10
2018-10-12T13:39:27.710Z,24.80
2018-10-12T13:44:29.837Z,24.80
2018-10-12T13:49:31.986Z,24.70
2018-10-12T13:54:34.182Z,24.90
2018-10-12T13:59:36.326Z,25.00
2018-10-12T14:04:38.501Z,25.20
2018-10-12T14:09:40.631Z,25.10
2018-10-12T14:14:42.786Z,25.30
2018-10-12T14:19:45.131Z,25.30
2018-10-12T14:24:47.266Z,25.30
2018-10-12T14:29:49.432Z,25.40
2018-10-12T14:34:51.602Z,25.30
2018-10-12T14:39:53.786Z,25.30
2018-10-12T14:44:55.968Z,25.30
2018-10-12T14:49:58.070Z,25.40
2018-10-12T14:55:00.221Z,25.30
2018-10-12T15:00:02.434Z,25.30
2018-10-12T15:05:04.618Z,25.40
2018-10-12T15:10:06.771Z,25.40
2018-10-12T15:15:14.109Z,25.40
2018-10-12T15:20:16.401Z,25.30
2018-10-12T15:25:18.844Z,25.20
2018-10-12T15:30:21.029Z,25.20
2018-10-12T15:35:23.283Z,25.20
2018-10-12T15:40:25.451Z,25.10
2018-10-12T15:45:27.617Z,25.10
2018-10-12T15:50:29.782Z,25.00
2018-10-12T15:55:31.962Z,24.80
2018-10-12T16:00:34.118Z,24.70
2018-10-12T16:05:36.269Z,24.60
2018-10-12T16:10:38.492Z,24.50
2018-10-12T16:15:40.643Z,24.50
2018-10-12T16:20:42.794Z,24.30
2018-10-12T16:25:58.050Z,24.30
2018-10-12T16:31:00.214Z,24.10
2018-10-12T16:36:02.384Z,24.00
2018-10-12T16:41:04.594Z,23.80
2018-10-12T16:46:06.810Z,23.60
2018-10-12T16:51:08.954Z,23.50
2018-10-12T16:56:11.110Z,23.40
2018-10-12T17:01:13.270Z,23.20
2018-10-12T17:06:15.543Z,22.90
2018-10-12T17:11:17.699Z,22.70
2018-10-12T17:16:19.846Z,22.60
2018-10-12T17:21:22.090Z,22.40
2018-10-12T17:26:24.243Z,22.20
2018-10-12T17:31:26.423Z,22.10
2018-10-12T17:36:28.733Z,22.00
2018-10-12T17:41:30.929Z,21.80
2018-10-12T17:46:33.162Z,21.70
2018-10-12T17:51:35.307Z,21.60
2018-10-12T17:56:37.469Z,21.50
2018-10-12T18:01:39.680Z,21.40
2018-10-12T18:06:41.826Z,21.20
2018-10-12T18:11:43.998Z,21.10
2018-10-12T18:16:46.230Z,21.00
2018-10-12T18:21:48.391Z,20.90
2018-10-12T18:26:50.569Z,20.70
2018-10-12T18:31:52.757Z,20.70
2018-10-12T18:36:55.003Z,20.50
2018-10-12T18:41:57.102Z,20.40
2018-10-12T18:46:59.280Z,20.30
2018-10-12T18:52:01.462Z,20.10
2018-10-12T18:57:03.658Z,20.10
2018-10-12T19:02:05.818Z,20.10
2018-10-12T19:07:08.110Z,20.10
2018-10-12T19:12:10.342Z,20.00
2018-10-12T19:17:12.574Z,19.90
2018-10-12T19:22:14.870Z,19.80
2018-10-12T19:27:17.073Z,19.80
2018-10-12T19:32:19.358Z,19.70
2018-10-12T19:37:21.582Z,19.60
2018-10-12T19:42:23.855Z,19.60
2018-10-12T19:47:26.114Z,19.50
2018-10-12T19:52:28.558Z,19.50
2018-10-12T19:57:30.868Z,19.40
2018-10-12T20:02:33.121Z,19.30
2018-10-12T20:07:36.346Z,19.20
2018-10-12T20:12:40.702Z,19.20
2018-10-12T20:17:45.161Z,19.10
2018-10-12T20:22:49.386Z,19.10
2018-10-12T20:27:53.742Z,19.00
2018-10-12T20:32:58.069Z,18.90
2018-10-12T20:38:02.378Z,18.80
2018-10-12T20:43:06.819Z,18.70
2018-10-12T20:48:11.139Z,18.70
2018-10-12T20:53:15.482Z,18.70
2018-10-12T20:58:19.817Z,18.60
2018-10-12T21:03:24.189Z,18.60
2018-10-12T21:08:28.515Z,18.40
2018-10-12T21:13:32.818Z,18.20
2018-10-12T21:18:37.130Z,18.00
2018-10-12T21:23:41.462Z,17.90
2018-10-12T21:28:45.766Z,17.80
2018-10-12T21:33:50.083Z,17.80
2018-10-12T21:38:54.417Z,17.70
2018-10-12T21:43:58.737Z,17.40
2018-10-12T21:49:03.073Z,17.20
2018-10-12T21:54:07.395Z,16.90
2018-10-12T21:59:11.714Z,16.80
2018-10-12T22:04:16.040Z,16.80
2018-10-12T22:09:20.362Z,16.60
2018-10-12T22:14:24.682Z,16.70
2018-10-12T22:19:29.014Z,16.50
2018-10-12T22:24:33.338Z,16.50
2018-10-12T22:29:37.674Z,16.50
2018-10-12T22:34:41.991Z,16.10
2018-10-12T22:39:46.320Z,15.90
2018-10-12T22:44:50.689Z,15.80
2018-10-12T22:49:55.006Z,15.60
2018-10-12T22:54:59.377Z,15.70
2018-10-12T23:00:03.722Z,15.50
2018-10-12T23:05:08.042Z,15.70
2018-10-12T23:10:12.431Z,15.70
2018-10-12T23:15:16.766Z,15.70
2018-10-12T23:20:21.135Z,15.70
2018-10-12T23:25:25.474Z,15.60
2018-10-12T23:30:29.806Z,15.50
2018-10-12T23:35:34.137Z,15.20
2018-10-12T23:40:38.506Z,15.20
2018-10-12T23:45:42.814Z,15.20
2018-10-12T23:50:47.170Z,15.00
2018-10-12T23:55:51.558Z,15.00
